Terminal Aerodrome Forecast
Issued by NWS Twin Cities, MN

Home | Current Version | Previous Version | Graphics & Text | Print | Product List | Glossary On
Versions: 1 2 3 4 5 6 7 8 9 10 11 12 13 14 15 16 17
131
FTUS43 KMPX 080322 AAA
TAFEAU
TAF AMD
KEAU 080322Z 0803/0824 28010KT 4SM -SN OVC020
      TEMPO 0803/0806 2SM -SN BLSN OVC015
     FM080600 30014G22KT 2SM -SN BLSN OVC015
     FM081700 32015G24KT P6SM OVC015=

USA.gov is the U.S. government's official web portal to all federal, state and local government web resources and services.